Flight Track Log - Related Links

Times and Time Zones

All times are in EDT time to prevent confusion due to time zone crossing. See the N121JM flight status page for this flight to view local times or setup timezone preferences in your user account.

Time Position Orientation Groundspeed Altitude Reporting Facility
EDT Latitude Longitude Course Direction KTS MPH feet Rate Location/Type
Sun 12:56:54 PM 40.8117 -74.4015 1000° North 1,100  Level FlightAware ADS-B
Sun 12:56:57 PM 40.8139 -74.3993 37° Northeast 183 211 1,200 1,565 Climbing FlightAware ADS-B
Sun 12:58:03 PM 40.8333 -74.3333 227° Southwest 224 258 2,900 2,468 Climbing New York TRACON
Sun 12:59:00 PM 40.7357 -74.4842 217° Southwest  Level Estimated
Sun 12:59:01 PM 40.7791 -74.3217 217° Southwest 253 291 6,300  Level FlightAware ADS-B
Sun 12:59:03 PM 40.7833 -74.3167 166° South 247 284 6,100 1,125 Descending New York TRACON
Sun 12:59:17 PM 40.7627 -74.3345 211° Southwest 253 291 6,600 1,895 Climbing FlightAware ADS-B
Sun 12:59:22 PM 40.7587 -74.3385 217° Southwest 253 291 6,700 923 Climbing FlightAware ADS-B
Sun 12:59:30 PM 40.7516 -74.3463 220° Southwest 260 299 6,800 600 Climbing FlightAware ADS-B
Sun 12:59:42 PM 40.7411 -74.3599 224° Southwest 267 307 6,900 783 Climbing FlightAware ADS-B
Sun 12:59:53 PM 40.7324 -74.3741 231° Southwest 268 308 7,100 857 Climbing FlightAware ADS-B
Sun 12:59:56 PM 40.7299 -74.3786 234° Southwest 268 308 7,100 -600 Level FlightAware ADS-B
Sun 01:00:03 PM 40.7333 -74.3833 225° Southwest 266 306 7,000  Descending New York TRACON
Sun 01:00:07 PM 40.7230 -74.3932 238° Southwest 267 307 7,100 200 Climbing FlightAware ADS-B
Sun 01:00:33 PM 40.7082 -74.4313 243° Southwest 267 307 7,100  Level FlightAware ADS-B
Sun 01:01:03 PM 40.7000 -74.4667 242° Southwest 265 305 7,100  Level New York TRACON
Sun 01:02:03 PM 40.6667 -74.5500 242° Southwest 268 308 7,100 450 Level New York TRACON
Sun 01:03:00 PM 40.6681 -74.5885 227° Southwest  Level FlightAware Approximate
Sun 01:03:03 PM 40.6333 -74.6333 242° Southwest 274 315 8,000  Level New York TRACON
Sun 01:05:09 PM 40.5667 -74.8333 246° West 260 299 8,000  Level Philadelphia TRACON
Sun 01:06:10 PM 40.5667 -74.9333 270° West 261 300 8,000  Level Philadelphia TRACON
Sun 01:07:10 PM 40.5500 -75.0167 255° West 262 302 8,000  Level Philadelphia TRACON
Sun 01:08:10 PM 40.5500 -75.1167 270° West 263 303 8,000 -100 Level Philadelphia TRACON
Sun 01:09:10 PM 40.5333 -75.2167 258° West 264 304 7,800 -450 Descending Philadelphia TRACON
Sun 01:10:10 PM 40.5333 -75.3000 270° West 260 299 7,100 -400 Descending Philadelphia TRACON
Sun 01:11:10 PM 40.5167 -75.4000 258° West 258 297 7,000 -50 Descending Philadelphia TRACON
Sun 01:12:10 PM 40.4333 -75.4167 189° South 293 337 7,000 -50 Level Philadelphia TRACON
Sun 01:13:10 PM 40.3500 -75.4000 171° South 289 333 6,900 -350 Descending Philadelphia TRACON
Sun 01:14:10 PM 40.2833 -75.4000 180° South 289 333 6,300 -446 Descending Philadelphia TRACON
Sun 01:15:11 PM 40.2000 -75.4333 197° South 279 321 6,000 -149 Descending Philadelphia TRACON
Sun 01:16:11 PM 40.1333 -75.4500 191° South 283 326 6,000 -250 Level Philadelphia TRACON
Sun 01:17:11 PM 40.0500 -75.5000 205° Southwest 286 329 5,500 -800 Descending Philadelphia TRACON
Sun 01:18:11 PM 39.9833 -75.5500 210° Southwest 261 300 4,400 -1,000 Descending Philadelphia TRACON
Sun 01:19:11 PM 39.9167 -75.5500 180° South 252 290 3,500 -800 Descending Philadelphia TRACON
Sun 01:20:11 PM 39.8500 -75.5500 180° South 245 282 2,800 -700 Descending Philadelphia TRACON
Sun 01:21:11 PM 39.7833 -75.5500 180° South 252 290 2,100 -600 Descending Philadelphia TRACON
Sun 01:22:11 PM 39.7167 -75.5500 180° South 231 266 1,600 -350 Descending Philadelphia TRACON
Sun 01:23:11 PM 39.6500 -75.5500 180° South 202 232 1,400 -350 Descending Philadelphia TRACON
Sun 01:24:11 PM 39.6333 -75.6000 247° West 149 171 900 -500 Descending Philadelphia TRACON
Sun 01:26:00 PM 39.6667 -75.6000 180° South  Level FlightAware Approximate
Sun 01:33:00 PM 39.6787 -75.6066 180° South  Level Estimated

Login

Don't have an account? Register now (free) for customized features, flight alerts, and more!